sensor_id;sensor_type;location;lat;lon;timestamp;pressure;altitude;pressure_sealevel;temperature;humidity
13800;BME280;6971;50.028;9.258;2024-02-23T00:00:33;97087.19;;;6.90;100.00
13800;BME280;6971;50.028;9.258;2024-02-23T00:05:34;97093.94;;;6.81;100.00
13800;BME280;6971;50.028;9.258;2024-02-23T00:10:34;97116.28;;;6.74;100.00
13800;BME280;6971;50.028;9.258;2024-02-23T00:15:35;97131.78;;;6.65;100.00
13800;BME280;6971;50.028;9.258;2024-02-23T00:20:35;97154.13;;;6.70;100.00
13800;BME280;6971;50.028;9.258;2024-02-23T00:25:36;97153.16;;;6.59;100.00
13800;BME280;6971;50.028;9.258;2024-02-23T00:30:36;97165.75;;;6.54;100.00
13800;BME280;6971;50.028;9.258;2024-02-23T00:35:37;97178.09;;;6.52;100.00
13800;BME280;6971;50.028;9.258;2024-02-23T00:40:37;97200.53;;;6.43;100.00
13800;BME280;6971;50.028;9.258;2024-02-23T00:45:38;97204.34;;;6.39;100.00
13800;BME280;6971;50.028;9.258;2024-02-23T00:50:38;97228.66;;;6.28;100.00
13800;BME280;6971;50.028;9.258;2024-02-23T00:55:39;97206.06;;;6.27;100.00
13800;BME280;6971;50.028;9.258;2024-02-23T01:00:39;97220.72;;;6.17;100.00
13800;BME280;6971;50.028;9.258;2024-02-23T01:05:39;97233.09;;;6.01;100.00
13800;BME280;6971;50.028;9.258;2024-02-23T01:10:40;97250.75;;;5.98;100.00
13800;BME280;6971;50.028;9.258;2024-02-23T01:15:41;97260.59;;;5.94;100.00
13800;BME280;6971;50.028;9.258;2024-02-23T01:20:42;97253.06;;;6.03;100.00
13800;BME280;6971;50.028;9.258;2024-02-23T01:25:42;97257.16;;;5.94;100.00
13800;BME280;6971;50.028;9.258;2024-02-23T01:30:42;97247.63;;;5.93;100.00
13800;BME280;6971;50.028;9.258;2024-02-23T01:35:43;97262.72;;;5.89;100.00
13800;BME280;6971;50.028;9.258;2024-02-23T01:40:44;97279.97;;;5.92;100.00
13800;BME280;6971;50.028;9.258;2024-02-23T01:45:44;97264.59;;;5.87;100.00
13800;BME280;6971;50.028;9.258;2024-02-23T01:50:44;97272.44;;;5.74;100.00
13800;BME280;6971;50.028;9.258;2024-02-23T01:55:45;97282.06;;;5.60;100.00
13800;BME280;6971;50.028;9.258;2024-02-23T02:00:46;97302.78;;;5.64;100.00
13800;BME280;6971;50.028;9.258;2024-02-23T02:05:46;97316.16;;;5.59;100.00
13800;BME280;6971;50.028;9.258;2024-02-23T02:10:46;97308.59;;;5.54;100.00
13800;BME280;6971;50.028;9.258;2024-02-23T02:15:47;97333.91;;;5.54;100.00
13800;BME280;6971;50.028;9.258;2024-02-23T02:20:52;97343.41;;;5.55;100.00
13800;BME280;6971;50.028;9.258;2024-02-23T02:25:58;97345.38;;;5.38;100.00
13800;BME280;6971;50.028;9.258;2024-02-23T02:30:58;97358.97;;;5.43;100.00
13800;BME280;6971;50.028;9.258;2024-02-23T02:35:58;97355.34;;;5.46;100.00
13800;BME280;6971;50.028;9.258;2024-02-23T02:40:59;97345.59;;;5.35;100.00
13800;BME280;6971;50.028;9.258;2024-02-23T02:46:02;97359.97;;;5.28;100.00
13800;BME280;6971;50.028;9.258;2024-02-23T02:51:03;97360.78;;;5.15;100.00
13800;BME280;6971;50.028;9.258;2024-02-23T02:56:06;97367.66;;;5.16;100.00
13800;BME280;6971;50.028;9.258;2024-02-23T03:01:08;97380.16;;;4.98;100.00
13800;BME280;6971;50.028;9.258;2024-02-23T03:06:08;97391.47;;;4.84;100.00
13800;BME280;6971;50.028;9.258;2024-02-23T03:11:09;97404.97;;;4.91;100.00
13800;BME280;6971;50.028;9.258;2024-02-23T03:16:17;97408.66;;;4.74;100.00
13800;BME280;6971;50.028;9.258;2024-02-23T03:21:17;97412.28;;;4.56;100.00
13800;BME280;6971;50.028;9.258;2024-02-23T03:26:17;97406.44;;;4.38;100.00
13800;BME280;6971;50.028;9.258;2024-02-23T03:31:18;97406.53;;;4.22;100.00
13800;BME280;6971;50.028;9.258;2024-02-23T03:36:18;97419.75;;;4.19;100.00
13800;BME280;6971;50.028;9.258;2024-02-23T03:41:19;97433.34;;;4.10;100.00
13800;BME280;6971;50.028;9.258;2024-02-23T03:46:19;97444.88;;;4.05;100.00
13800;BME280;6971;50.028;9.258;2024-02-23T03:51:20;97443.13;;;4.21;100.00
13800;BME280;6971;50.028;9.258;2024-02-23T03:56:20;97450.34;;;4.01;100.00
13800;BME280;6971;50.028;9.258;2024-02-23T04:01:20;97448.97;;;3.95;100.00
13800;BME280;6971;50.028;9.258;2024-02-23T04:06:21;97451.13;;;4.03;100.00
13800;BME280;6971;50.028;9.258;2024-02-23T04:11:21;97451.28;;;4.00;100.00
13800;BME280;6971;50.028;9.258;2024-02-23T04:16:25;97457.69;;;3.94;100.00
13800;BME280;6971;50.028;9.258;2024-02-23T04:21:25;97467.31;;;3.94;100.00
13800;BME280;6971;50.028;9.258;2024-02-23T04:26:26;97481.91;;;3.96;100.00
13800;BME280;6971;50.028;9.258;2024-02-23T04:31:26;97472.13;;;4.00;100.00
13800;BME280;6971;50.028;9.258;2024-02-23T04:36:27;97481.13;;;3.79;100.00
13800;BME280;6971;50.028;9.258;2024-02-23T04:41:27;97477.66;;;3.79;100.00
13800;BME280;6971;50.028;9.258;2024-02-23T04:46:28;97485.75;;;3.74;100.00
13800;BME280;6971;50.028;9.258;2024-02-23T04:51:28;97480.50;;;3.60;100.00
13800;BME280;6971;50.028;9.258;2024-02-23T04:56:28;97470.09;;;3.60;100.00
13800;BME280;6971;50.028;9.258;2024-02-23T05:01:35;97467.06;;;3.51;100.00
13800;BME280;6971;50.028;9.258;2024-02-23T05:06:35;97471.19;;;3.56;100.00
13800;BME280;6971;50.028;9.258;2024-02-23T05:11:35;97467.06;;;3.51;100.00
13800;BME280;6971;50.028;9.258;2024-02-23T05:16:36;97475.28;;;3.44;100.00
13800;BME280;6971;50.028;9.258;2024-02-23T05:21:37;97465.06;;;3.41;100.00
13800;BME280;6971;50.028;9.258;2024-02-23T05:26:37;97460.88;;;3.38;100.00
13800;BME280;6971;50.028;9.258;2024-02-23T05:31:49;97447.28;;;3.33;100.00
13800;BME280;6971;50.028;9.258;2024-02-23T05:36:50;97452.66;;;3.30;100.00
13800;BME280;6971;50.028;9.258;2024-02-23T05:41:51;97447.09;;;3.20;100.00
13800;BME280;6971;50.028;9.258;2024-02-23T05:46:51;97467.28;;;3.16;100.00
13800;BME280;6971;50.028;9.258;2024-02-23T05:51:52;97470.81;;;3.15;100.00
13800;BME280;6971;50.028;9.258;2024-02-23T05:56:52;97471.56;;;3.17;100.00
13800;BME280;6971;50.028;9.258;2024-02-23T06:01:52;97473.56;;;3.12;100.00
13800;BME280;6971;50.028;9.258;2024-02-23T06:06:56;97478.44;;;3.18;100.00
13800;BME280;6971;50.028;9.258;2024-02-23T06:11:57;97477.50;;;3.19;100.00
13800;BME280;6971;50.028;9.258;2024-02-23T06:16:57;97476.09;;;3.13;100.00
13800;BME280;6971;50.028;9.258;2024-02-23T06:21:57;97494.81;;;3.20;100.00
13800;BME280;6971;50.028;9.258;2024-02-23T06:26:58;97490.78;;;3.31;100.00
13800;BME280;6971;50.028;9.258;2024-02-23T06:31:59;97495.81;;;3.34;100.00
13800;BME280;6971;50.028;9.258;2024-02-23T06:37:03;97490.78;;;3.31;100.00
13800;BME280;6971;50.028;9.258;2024-02-23T06:42:03;97507.25;;;3.31;100.00
13800;BME280;6971;50.028;9.258;2024-02-23T06:47:04;97513.63;;;3.25;100.00
13800;BME280;6971;50.028;9.258;2024-02-23T06:52:06;97525.38;;;3.17;100.00
13800;BME280;6971;50.028;9.258;2024-02-23T06:57:07;97531.00;;;3.09;100.00
13800;BME280;6971;50.028;9.258;2024-02-23T07:02:07;97527.72;;;3.05;100.00
13800;BME280;6971;50.028;9.258;2024-02-23T07:07:08;97540.16;;;3.16;100.00
13800;BME280;6971;50.028;9.258;2024-02-23T07:12:08;97545.31;;;3.34;100.00
13800;BME280;6971;50.028;9.258;2024-02-23T07:17:11;97536.78;;;3.30;100.00
13800;BME280;6971;50.028;9.258;2024-02-23T07:22:12;97544.53;;;3.48;100.00
13800;BME280;6971;50.028;9.258;2024-02-23T07:27:12;97545.03;;;3.55;100.00
13800;BME280;6971;50.028;9.258;2024-02-23T07:32:13;97536.31;;;3.39;100.00
13800;BME280;6971;50.028;9.258;2024-02-23T07:37:13;97549.00;;;3.46;100.00
13800;BME280;6971;50.028;9.258;2024-02-23T07:42:14;97555.13;;;3.29;100.00
13800;BME280;6971;50.028;9.258;2024-02-23T07:47:18;97556.13;;;3.42;100.00
13800;BME280;6971;50.028;9.258;2024-02-23T07:52:18;97561.50;;;3.55;100.00
13800;BME280;6971;50.028;9.258;2024-02-23T07:57:19;97568.78;;;3.81;100.00
13800;BME280;6971;50.028;9.258;2024-02-23T08:02:20;97578.94;;;4.01;100.00
13800;BME280;6971;50.028;9.258;2024-02-23T08:07:20;97583.53;;;4.43;100.00
13800;BME280;6971;50.028;9.258;2024-02-23T08:12:21;97594.56;;;4.48;100.00
13800;BME280;6971;50.028;9.258;2024-02-23T08:17:21;97591.78;;;4.66;100.00
13800;BME280;6971;50.028;9.258;2024-02-23T08:22:22;97586.97;;;4.43;100.00
13800;BME280;6971;50.028;9.258;2024-02-23T08:27:23;97588.31;;;4.65;100.00
13800;BME280;6971;50.028;9.258;2024-02-23T08:32:23;97592.91;;;4.62;100.00
13800;BME280;6971;50.028;9.258;2024-02-23T08:37:24;97596.34;;;4.77;100.00
13800;BME280;6971;50.028;9.258;2024-02-23T08:42:24;97597.19;;;5.35;100.00
13800;BME280;6971;50.028;9.258;2024-02-23T08:47:25;97595.94;;;5.98;100.00
13800;BME280;6971;50.028;9.258;2024-02-23T08:52:28;97589.06;;;6.37;100.00
13800;BME280;6971;50.028;9.258;2024-02-23T08:57:28;97595.00;;;5.99;100.00
13800;BME280;6971;50.028;9.258;2024-02-23T09:02:29;97588.63;;;5.33;100.00
13800;BME280;6971;50.028;9.258;2024-02-23T09:07:29;97587.31;;;5.26;100.00
13800;BME280;6971;50.028;9.258;2024-02-23T09:12:29;97583.19;;;5.36;100.00
13800;BME280;6971;50.028;9.258;2024-02-23T09:17:30;97597.22;;;5.06;100.00
13800;BME280;6971;50.028;9.258;2024-02-23T09:22:30;97587.97;;;5.30;100.00
13800;BME280;6971;50.028;9.258;2024-02-23T09:27:31;97596.63;;;5.45;100.00
13800;BME280;6971;50.028;9.258;2024-02-23T09:32:31;97582.25;;;5.52;100.00
13800;BME280;6971;50.028;9.258;2024-02-23T09:37:32;97571.06;;;5.78;100.00
13800;BME280;6971;50.028;9.258;2024-02-23T09:42:33;97581.16;;;5.84;100.00
13800;BME280;6971;50.028;9.258;2024-02-23T09:47:34;97585.97;;;5.90;100.00
13800;BME280;6971;50.028;9.258;2024-02-23T09:52:34;97575.00;;;6.12;100.00
13800;BME280;6971;50.028;9.258;2024-02-23T09:57:36;97578.22;;;5.88;100.00
13800;BME280;6971;50.028;9.258;2024-02-23T10:02:36;97590.25;;;6.06;100.00
13800;BME280;6971;50.028;9.258;2024-02-23T10:07:37;97576.72;;;5.99;100.00
13800;BME280;6971;50.028;9.258;2024-02-23T10:12:37;97578.75;;;6.08;100.00
13800;BME280;6971;50.028;9.258;2024-02-23T10:17:38;97597.47;;;6.56;100.00
13800;BME280;6971;50.028;9.258;2024-02-23T10:22:38;97600.63;;;6.48;100.00
13800;BME280;6971;50.028;9.258;2024-02-23T10:27:42;97601.41;;;6.35;100.00
13800;BME280;6971;50.028;9.258;2024-02-23T10:32:43;97607.03;;;6.29;100.00
13800;BME280;6971;50.028;9.258;2024-02-23T10:37:48;97619.34;;;6.14;100.00
13800;BME280;6971;50.028;9.258;2024-02-23T10:42:51;97614.97;;;6.14;100.00
13800;BME280;6971;50.028;9.258;2024-02-23T10:47:55;97617.75;;;6.11;100.00
13800;BME280;6971;50.028;9.258;2024-02-23T10:52:55;97613.56;;;6.09;100.00
13800;BME280;6971;50.028;9.258;2024-02-23T10:57:58;97606.66;;;6.08;100.00
13800;BME280;6971;50.028;9.258;2024-02-23T11:02:59;97593.78;;;6.05;100.00
13800;BME280;6971;50.028;9.258;2024-02-23T11:08:00;97596.69;;;6.00;100.00
13800;BME280;6971;50.028;9.258;2024-02-23T11:13:00;97601.72;;;6.03;100.00
13800;BME280;6971;50.028;9.258;2024-02-23T11:18:01;97601.75;;;5.88;100.00
13800;BME280;6971;50.028;9.258;2024-02-23T11:23:01;97597.34;;;6.04;100.00
13800;BME280;6971;50.028;9.258;2024-02-23T11:28:02;97597.97;;;6.07;100.00
13800;BME280;6971;50.028;9.258;2024-02-23T11:33:02;97591.44;;;6.00;100.00
13800;BME280;6971;50.028;9.258;2024-02-23T11:38:03;97591.22;;;6.18;100.00
13800;BME280;6971;50.028;9.258;2024-02-23T11:43:05;97594.56;;;6.20;100.00
13800;BME280;6971;50.028;9.258;2024-02-23T11:48:07;97579.22;;;6.41;100.00
13800;BME280;6971;50.028;9.258;2024-02-23T11:53:08;97572.31;;;6.27;100.00
13800;BME280;6971;50.028;9.258;2024-02-23T11:58:09;97566.38;;;6.51;100.00
13800;BME280;6971;50.028;9.258;2024-02-23T12:03:11;97570.75;;;6.37;100.00
13800;BME280;6971;50.028;9.258;2024-02-23T12:08:11;97561.03;;;6.39;100.00
13800;BME280;6971;50.028;9.258;2024-02-23T12:13:12;97561.84;;;6.40;100.00
13800;BME280;6971;50.028;9.258;2024-02-23T12:18:12;97559.22;;;6.40;100.00
13800;BME280;6971;50.028;9.258;2024-02-23T12:23:14;97558.75;;;6.48;100.00
13800;BME280;6971;50.028;9.258;2024-02-23T12:28:18;97555.91;;;6.51;100.00
13800;BME280;6971;50.028;9.258;2024-02-23T12:33:20;97553.91;;;6.68;100.00
13800;BME280;6971;50.028;9.258;2024-02-23T12:38:20;97557.88;;;6.60;100.00
13800;BME280;6971;50.028;9.258;2024-02-23T12:43:21;97560.00;;;6.68;100.00
13800;BME280;6971;50.028;9.258;2024-02-23T12:48:24;97556.00;;;6.75;100.00
13800;BME280;6971;50.028;9.258;2024-02-23T12:53:36;97558.53;;;6.90;99.20
13800;BME280;6971;50.028;9.258;2024-02-23T12:58:38;97541.13;;;7.02;98.30
13800;BME280;6971;50.028;9.258;2024-02-23T13:03:39;97543.09;;;7.11;96.92
13800;BME280;6971;50.028;9.258;2024-02-23T13:08:42;97539.41;;;7.27;95.62
13800;BME280;6971;50.028;9.258;2024-02-23T13:13:43;97535.84;;;7.28;96.59
13800;BME280;6971;50.028;9.258;2024-02-23T13:18:43;97532.69;;;7.36;95.48
13800;BME280;6971;50.028;9.258;2024-02-23T13:23:44;97529.97;;;7.37;95.23
13800;BME280;6971;50.028;9.258;2024-02-23T13:28:46;97525.59;;;7.25;92.71
13800;BME280;6971;50.028;9.258;2024-02-23T13:33:46;97517.22;;;7.20;95.15
13800;BME280;6971;50.028;9.258;2024-02-23T13:38:47;97518.69;;;7.11;95.26
13800;BME280;6971;50.028;9.258;2024-02-23T13:43:47;97522.69;;;7.03;100.00
13800;BME280;6971;50.028;9.258;2024-02-23T13:49:02;97539.66;;;6.98;100.00
13800;BME280;6971;50.028;9.258;2024-02-23T13:54:02;97538.03;;;6.71;100.00
13800;BME280;6971;50.028;9.258;2024-02-23T13:59:03;97541.78;;;6.79;100.00
13800;BME280;6971;50.028;9.258;2024-02-23T14:04:06;97540.09;;;6.78;100.00
13800;BME280;6971;50.028;9.258;2024-02-23T14:09:07;97534.56;;;6.70;100.00
13800;BME280;6971;50.028;9.258;2024-02-23T14:14:07;97537.16;;;6.70;100.00
13800;BME280;6971;50.028;9.258;2024-02-23T14:19:08;97542.19;;;6.60;100.00
13800;BME280;6971;50.028;9.258;2024-02-23T14:24:09;97538.75;;;6.60;100.00
13800;BME280;6971;50.028;9.258;2024-02-23T14:29:09;97525.53;;;6.87;100.00
13800;BME280;6971;50.028;9.258;2024-02-23T14:34:09;97515.59;;;7.30;100.00
13800;BME280;6971;50.028;9.258;2024-02-23T14:39:10;97514.25;;;7.62;100.00
13800;BME280;6971;50.028;9.258;2024-02-23T14:44:12;97506.72;;;7.20;100.00
13800;BME280;6971;50.028;9.258;2024-02-23T14:49:13;97497.72;;;7.24;100.00
13800;BME280;6971;50.028;9.258;2024-02-23T14:54:13;97502.09;;;7.23;100.00
13800;BME280;6971;50.028;9.258;2024-02-23T14:59:14;97488.16;;;6.85;100.00
13800;BME280;6971;50.028;9.258;2024-02-23T15:04:14;97491.94;;;6.68;100.00
13800;BME280;6971;50.028;9.258;2024-02-23T15:09:14;97498.44;;;6.62;100.00
13800;BME280;6971;50.028;9.258;2024-02-23T15:14:15;97494.97;;;6.75;100.00
13800;BME280;6971;50.028;9.258;2024-02-23T15:19:15;97500.00;;;6.65;100.00
13800;BME280;6971;50.028;9.258;2024-02-23T15:24:16;97504.41;;;6.77;100.00
13800;BME280;6971;50.028;9.258;2024-02-23T15:29:18;97505.53;;;6.60;100.00
13800;BME280;6971;50.028;9.258;2024-02-23T15:34:18;97520.19;;;6.63;100.00
13800;BME280;6971;50.028;9.258;2024-02-23T15:39:18;97521.06;;;6.50;100.00
13800;BME280;6971;50.028;9.258;2024-02-23T15:44:19;97502.31;;;6.44;100.00
13800;BME280;6971;50.028;9.258;2024-02-23T15:49:19;97504.06;;;6.56;100.00
13800;BME280;6971;50.028;9.258;2024-02-23T15:54:20;97513.81;;;6.54;100.00
13800;BME280;6971;50.028;9.258;2024-02-23T15:59:21;97526.03;;;6.27;100.00
13800;BME280;6971;50.028;9.258;2024-02-23T16:04:22;97512.81;;;6.03;100.00
13800;BME280;6971;50.028;9.258;2024-02-23T16:09:22;97518.44;;;5.97;100.00
13800;BME280;6971;50.028;9.258;2024-02-23T16:14:23;97522.72;;;5.98;100.00
13800;BME280;6971;50.028;9.258;2024-02-23T16:19:23;97528.69;;;6.00;100.00
13800;BME280;6971;50.028;9.258;2024-02-23T16:24:23;97522.72;;;5.98;100.00
13800;BME280;6971;50.028;9.258;2024-02-23T16:29:24;97515.47;;;5.88;100.00
13800;BME280;6971;50.028;9.258;2024-02-23T16:34:24;97509.53;;;5.59;100.00
13800;BME280;6971;50.028;9.258;2024-02-23T16:39:24;97515.09;;;5.40;100.00
13800;BME280;6971;50.028;9.258;2024-02-23T16:44:25;97516.59;;;5.29;100.00
13800;BME280;6971;50.028;9.258;2024-02-23T16:49:25;97515.72;;;5.43;100.00
13800;BME280;6971;50.028;9.258;2024-02-23T16:54:25;97517.19;;;5.20;100.00
13800;BME280;6971;50.028;9.258;2024-02-23T16:59:26;97514.13;;;5.13;100.00
13800;BME280;6971;50.028;9.258;2024-02-23T17:04:26;97522.78;;;5.14;100.00
13800;BME280;6971;50.028;9.258;2024-02-23T17:09:27;97518.91;;;5.06;100.00
13800;BME280;6971;50.028;9.258;2024-02-23T17:14:27;97513.13;;;4.72;100.00
13800;BME280;6971;50.028;9.258;2024-02-23T17:19:28;97503.97;;;4.65;100.00
13800;BME280;6971;50.028;9.258;2024-02-23T17:24:28;97501.84;;;4.57;100.00
13800;BME280;6971;50.028;9.258;2024-02-23T17:29:29;97505.84;;;4.48;100.00
13800;BME280;6971;50.028;9.258;2024-02-23T17:34:29;97510.94;;;4.35;100.00
13800;BME280;6971;50.028;9.258;2024-02-23T17:39:30;97512.28;;;4.12;100.00
13800;BME280;6971;50.028;9.258;2024-02-23T17:44:31;97510.03;;;3.91;100.00
13800;BME280;6971;50.028;9.258;2024-02-23T17:49:31;97510.66;;;3.64;100.00
13800;BME280;6971;50.028;9.258;2024-02-23T17:54:31;97515.38;;;3.57;100.00
13800;BME280;6971;50.028;9.258;2024-02-23T17:59:32;97519.06;;;3.37;100.00
13800;BME280;6971;50.028;9.258;2024-02-23T18:04:32;97524.47;;;3.34;100.00
13800;BME280;6971;50.028;9.258;2024-02-23T18:09:32;97522.94;;;3.30;100.00
13800;BME280;6971;50.028;9.258;2024-02-23T18:14:33;97533.44;;;3.12;100.00
13800;BME280;6971;50.028;9.258;2024-02-23T18:19:35;97524.88;;;3.10;100.00
13800;BME280;6971;50.028;9.258;2024-02-23T18:24:36;97522.25;;;3.10;100.00
13800;BME280;6971;50.028;9.258;2024-02-23T18:29:36;97527.66;;;3.23;100.00
13800;BME280;6971;50.028;9.258;2024-02-23T18:34:37;97530.25;;;3.07;100.00
13800;BME280;6971;50.028;9.258;2024-02-23T18:39:37;97541.25;;;2.96;100.00
13800;BME280;6971;50.028;9.258;2024-02-23T18:44:37;97543.13;;;2.92;100.00
13800;BME280;6971;50.028;9.258;2024-02-23T18:49:38;97544.50;;;2.99;100.00
13800;BME280;6971;50.028;9.258;2024-02-23T18:54:38;97543.47;;;2.86;100.00
13800;BME280;6971;50.028;9.258;2024-02-23T18:59:39;97535.03;;;2.98;100.00
13800;BME280;6971;50.028;9.258;2024-02-23T19:04:39;97528.25;;;3.12;100.00
13800;BME280;6971;50.028;9.258;2024-02-23T19:09:40;97533.94;;;3.35;100.00
13800;BME280;6971;50.028;9.258;2024-02-23T19:14:40;97543.44;;;3.36;100.00
13800;BME280;6971;50.028;9.258;2024-02-23T19:19:41;97540.31;;;3.45;100.00
13800;BME280;6971;50.028;9.258;2024-02-23T19:24:41;97539.50;;;3.45;100.00
13800;BME280;6971;50.028;9.258;2024-02-23T19:29:42;97535.03;;;3.47;100.00
13800;BME280;6971;50.028;9.258;2024-02-23T19:34:42;97534.28;;;3.45;100.00
13800;BME280;6971;50.028;9.258;2024-02-23T19:39:44;97538.13;;;3.53;100.00
13800;BME280;6971;50.028;9.258;2024-02-23T19:44:45;97533.09;;;3.50;100.00
13800;BME280;6971;50.028;9.258;2024-02-23T19:49:45;97539.06;;;3.52;100.00
13800;BME280;6971;50.028;9.258;2024-02-23T19:54:45;97536.47;;;3.52;100.00
13800;BME280;6971;50.028;9.258;2024-02-23T19:59:46;97529.16;;;3.43;100.00
13800;BME280;6971;50.028;9.258;2024-02-23T20:04:46;97521.50;;;3.40;100.00
13800;BME280;6971;50.028;9.258;2024-02-23T20:09:51;97519.94;;;3.21;100.00
13800;BME280;6971;50.028;9.258;2024-02-23T20:14:51;97520.50;;;3.10;100.00
13800;BME280;6971;50.028;9.258;2024-02-23T20:19:51;97514.13;;;3.00;100.00
13800;BME280;6971;50.028;9.258;2024-02-23T20:24:52;97507.53;;;2.77;100.00
13800;BME280;6971;50.028;9.258;2024-02-23T20:29:53;97511.78;;;2.61;100.00
13800;BME280;6971;50.028;9.258;2024-02-23T20:34:53;97524.50;;;2.32;100.00
13800;BME280;6971;50.028;9.258;2024-02-23T20:39:54;97521.56;;;2.22;100.00
13800;BME280;6971;50.028;9.258;2024-02-23T20:44:54;97525.91;;;2.04;100.00
13800;BME280;6971;50.028;9.258;2024-02-23T20:49:54;97521.50;;;1.89;100.00
13800;BME280;6971;50.028;9.258;2024-02-23T20:54:55;97526.75;;;1.87;100.00
13800;BME280;6971;50.028;9.258;2024-02-23T20:59:55;97528.41;;;1.71;100.00
13800;BME280;6971;50.028;9.258;2024-02-23T21:04:56;97524.09;;;1.52;100.00
13800;BME280;6971;50.028;9.258;2024-02-23T21:09:56;97531.53;;;1.40;100.00
13800;BME280;6971;50.028;9.258;2024-02-23T21:14:56;97534.09;;;1.23;100.00
13800;BME280;6971;50.028;9.258;2024-02-23T21:19:57;97530.75;;;1.21;100.00
13800;BME280;6971;50.028;9.258;2024-02-23T21:24:57;97522.47;;;1.12;100.00
13800;BME280;6971;50.028;9.258;2024-02-23T21:29:57;97532.06;;;0.91;100.00
13800;BME280;6971;50.028;9.258;2024-02-23T21:34:58;97524.34;;;0.89;100.00
13800;BME280;6971;50.028;9.258;2024-02-23T21:39:58;97527.56;;;0.75;100.00
13800;BME280;6971;50.028;9.258;2024-02-23T21:44:58;97525.25;;;0.69;100.00
13800;BME280;6971;50.028;9.258;2024-02-23T21:49:59;97527.28;;;0.62;100.00
13800;BME280;6971;50.028;9.258;2024-02-23T21:54:59;97525.22;;;0.50;100.00
13800;BME280;6971;50.028;9.258;2024-02-23T22:00:00;97527.53;;;0.56;100.00
13800;BME280;6971;50.028;9.258;2024-02-23T22:05:00;97522.22;;;0.38;100.00
13800;BME280;6971;50.028;9.258;2024-02-23T22:10:01;97522.34;;;0.35;100.00
13800;BME280;6971;50.028;9.258;2024-02-23T22:15:02;97531.97;;;0.33;100.00
13800;BME280;6971;50.028;9.258;2024-02-23T22:20:05;97537.59;;;0.22;100.00
13800;BME280;6971;50.028;9.258;2024-02-23T22:25:05;97537.41;;;0.06;100.00
13800;BME280;6971;50.028;9.258;2024-02-23T22:30:06;97539.06;;;0.07;100.00
13800;BME280;6971;50.028;9.258;2024-02-23T22:35:08;97539.06;;;0.07;100.00
13800;BME280;6971;50.028;9.258;2024-02-23T22:40:09;97542.97;;;-0.03;100.00
13800;BME280;6971;50.028;9.258;2024-02-23T22:45:13;97530.25;;;-0.09;100.00
13800;BME280;6971;50.028;9.258;2024-02-23T22:50:13;97528.63;;;-0.12;100.00
13800;BME280;6971;50.028;9.258;2024-02-23T22:55:13;97528.56;;;-0.10;100.00
13800;BME280;6971;50.028;9.258;2024-02-23T23:00:14;97533.09;;;-0.16;100.00
13800;BME280;6971;50.028;9.258;2024-02-23T23:05:15;97537.19;;;-0.10;100.00
13800;BME280;6971;50.028;9.258;2024-02-23T23:10:15;97530.44;;;-0.14;100.00
13800;BME280;6971;50.028;9.258;2024-02-23T23:15:16;97533.59;;;-0.28;100.00
13800;BME280;6971;50.028;9.258;2024-02-23T23:20:16;97530.34;;;-0.33;100.00
13800;BME280;6971;50.028;9.258;2024-02-23T23:25:18;97538.28;;;-0.38;100.00
13800;BME280;6971;50.028;9.258;2024-02-23T23:30:18;97538.22;;;-0.36;100.00
13800;BME280;6971;50.028;9.258;2024-02-23T23:35:18;97545.09;;;-0.35;100.00
13800;BME280;6971;50.028;9.258;2024-02-23T23:40:19;97538.75;;;-0.28;100.00
13800;BME280;6971;50.028;9.258;2024-02-23T23:45:19;97543.94;;;-0.28;100.00
13800;BME280;6971;50.028;9.258;2024-02-23T23:50:20;97550.31;;;-0.15;100.00
13800;BME280;6971;50.028;9.258;2024-02-23T23:55:20;97545.59;;;-0.05;100.00
